createdAt,value
2023-09-29T00:00:07.647Z,69.94
2023-09-29T00:01:09.840Z,69.77
2023-09-29T00:02:11.979Z,70.39
2023-09-29T00:03:14.754Z,70.36
2023-09-29T00:04:16.913Z,70.13
2023-09-29T00:05:20.430Z,70.26
2023-09-29T00:06:22.480Z,70.42
2023-09-29T00:07:24.666Z,70.54
2023-09-29T00:08:26.773Z,70.47
2023-09-29T00:09:29.286Z,70.78
2023-09-29T00:10:32.163Z,70.73
2023-09-29T00:11:34.859Z,70.42
2023-09-29T00:12:40.980Z,70.57
2023-09-29T00:13:43.151Z,70.50
2023-09-29T00:14:45.292Z,70.62
2023-09-29T00:15:50.703Z,70.53
2023-09-29T00:16:52.755Z,70.74
2023-09-29T00:17:54.892Z,70.74
2023-09-29T00:18:57.359Z,70.54
2023-09-29T00:20:00.927Z,70.72
2023-09-29T00:21:02.877Z,70.76
2023-09-29T00:22:05.476Z,71.02
2023-09-29T00:23:07.881Z,71.04
2023-09-29T00:24:09.932Z,70.92
2023-09-29T00:25:12.042Z,71.43
2023-09-29T00:26:14.598Z,71.03
2023-09-29T00:27:16.648Z,70.99
2023-09-29T00:28:18.825Z,71.42
2023-09-29T00:29:20.893Z,71.21
2023-09-29T00:30:23.458Z,71.52
2023-09-29T00:31:25.478Z,71.76
2023-09-29T00:32:27.817Z,71.77
2023-09-29T00:33:29.967Z,71.77
2023-09-29T00:34:32.817Z,71.66
2023-09-29T00:35:35.071Z,71.63
2023-09-29T00:36:37.511Z,71.79
2023-09-29T00:37:41.820Z,71.73
2023-09-29T00:38:44.027Z,71.90
2023-09-29T00:39:46.120Z,71.72
2023-09-29T00:42:12.628Z,72.02
2023-09-29T00:43:17.090Z,71.86
2023-09-29T00:44:20.585Z,71.90
2023-09-29T00:45:28.005Z,72.12
2023-09-29T00:46:30.752Z,71.96
2023-09-29T00:47:33.882Z,71.96
2023-09-29T00:48:39.812Z,72.07
2023-09-29T00:49:42.200Z,72.16
2023-09-29T00:50:46.626Z,72.35
2023-09-29T00:51:49.606Z,72.34
2023-09-29T00:52:55.864Z,72.18
2023-09-29T00:53:59.171Z,72.36
2023-09-29T00:55:01.394Z,72.32
2023-09-29T00:56:04.064Z,71.93
2023-09-29T00:57:07.355Z,71.99
2023-09-29T00:58:10.533Z,71.95
2023-09-29T00:59:12.584Z,72.17
2023-09-29T01:00:35.272Z,72.10
2023-09-29T01:01:37.629Z,72.23
2023-09-29T01:02:40.000Z,72.10
2023-09-29T01:03:42.142Z,72.08
2023-09-29T01:04:44.348Z,72.32
2023-09-29T01:05:49.458Z,72.33
2023-09-29T01:06:52.253Z,72.16
2023-09-29T01:07:54.432Z,72.19
2023-09-29T01:08:58.270Z,72.31
2023-09-29T01:10:00.258Z,71.87
2023-09-29T01:11:04.986Z,72.15
2023-09-29T01:12:10.635Z,72.32
2023-09-29T01:13:14.175Z,72.52
2023-09-29T01:14:16.479Z,72.34
2023-09-29T01:15:20.597Z,72.44
2023-09-29T01:16:22.882Z,72.56
2023-09-29T01:17:26.800Z,71.96
2023-09-29T01:18:30.545Z,71.96
2023-09-29T01:19:33.062Z,72.08
2023-09-29T01:20:36.024Z,72.21
2023-09-29T01:21:38.205Z,72.15
2023-09-29T01:22:49.088Z,72.37
2023-09-29T01:23:52.344Z,72.54
2023-09-29T01:24:54.638Z,72.20
2023-09-29T01:25:57.011Z,73.15
2023-09-29T01:27:01.225Z,72.48
2023-09-29T01:28:06.746Z,72.74
2023-09-29T01:29:09.128Z,72.51
2023-09-29T01:30:15.159Z,72.38
2023-09-29T01:31:17.440Z,72.84
2023-09-29T01:32:19.477Z,72.79
2023-09-29T01:33:25.244Z,72.86
2023-09-29T01:34:32.373Z,73.12
2023-09-29T01:35:34.773Z,73.37
2023-09-29T01:36:38.026Z,73.27
2023-09-29T01:37:40.268Z,73.58
2023-09-29T01:38:43.922Z,73.10
2023-09-29T01:39:45.961Z,72.78
2023-09-29T01:40:48.054Z,72.95
2023-09-29T01:41:50.380Z,73.20
2023-09-29T01:42:53.228Z,73.18
2023-09-29T01:43:55.761Z,73.12
2023-09-29T01:44:57.982Z,72.89
2023-09-29T01:46:01.967Z,73.46
2023-09-29T01:47:04.014Z,72.93
2023-09-29T01:48:06.738Z,73.20
2023-09-29T01:49:08.981Z,73.37
2023-09-29T01:50:16.237Z,73.24
2023-09-29T01:51:19.055Z,73.26
2023-09-29T01:52:23.500Z,73.57
2023-09-29T01:53:29.448Z,73.26
2023-09-29T01:54:32.824Z,73.10
2023-09-29T01:55:34.990Z,73.38
2023-09-29T01:56:37.118Z,73.44
2023-09-29T01:57:40.123Z,73.32
2023-09-29T01:58:42.164Z,73.40
2023-09-29T01:59:44.495Z,73.71
2023-09-29T02:00:47.963Z,73.75
2023-09-29T02:01:50.420Z,73.71
2023-09-29T02:02:54.996Z,73.81
2023-09-29T02:03:57.644Z,73.62
2023-09-29T02:04:59.896Z,73.80
2023-09-29T02:06:04.179Z,73.84
2023-09-29T02:07:06.304Z,73.84
2023-09-29T02:08:11.200Z,73.81
2023-09-29T02:09:13.240Z,73.72
2023-09-29T02:10:20.494Z,73.81
2023-09-29T02:11:23.320Z,74.03
2023-09-29T02:12:25.685Z,73.86
2023-09-29T02:13:28.162Z,74.22
2023-09-29T02:14:52.212Z,74.12
2023-09-29T02:15:54.487Z,74.16
2023-09-29T02:16:56.737Z,74.20
2023-09-29T02:17:59.904Z,74.34
2023-09-29T02:19:05.209Z,74.32
2023-09-29T02:20:16.676Z,74.30
2023-09-29T02:21:28.799Z,74.43
2023-09-29T02:22:32.014Z,74.76
2023-09-29T02:23:39.581Z,74.71
2023-09-29T02:24:41.940Z,74.79
2023-09-29T02:25:45.543Z,74.81
2023-09-29T02:26:47.957Z,75.00
2023-09-29T02:27:49.999Z,74.93
2023-09-29T02:28:52.264Z,74.97
2023-09-29T02:29:54.233Z,75.05
2023-09-29T02:30:57.828Z,74.95
2023-09-29T02:32:00.166Z,74.83
2023-09-29T02:33:03.412Z,74.98
2023-09-29T02:34:05.606Z,75.20
2023-09-29T02:35:09.360Z,75.03
2023-09-29T02:36:11.307Z,75.17
2023-09-29T02:37:13.509Z,75.24
2023-09-29T02:38:15.451Z,74.99
2023-09-29T02:39:17.616Z,75.22
2023-09-29T02:40:20.637Z,75.26
2023-09-29T02:41:22.754Z,75.16
2023-09-29T02:42:25.364Z,75.24
2023-09-29T02:43:31.584Z,75.34
2023-09-29T02:44:35.132Z,75.65
2023-09-29T02:45:41.460Z,75.50
2023-09-29T02:46:43.543Z,75.61
2023-09-29T02:47:49.250Z,75.63
2023-09-29T02:48:51.694Z,75.65
2023-09-29T02:49:53.838Z,75.66
2023-09-29T02:50:56.426Z,75.56
2023-09-29T02:51:58.606Z,75.58
2023-09-29T02:53:00.547Z,75.44
2023-09-29T02:54:05.031Z,75.40
2023-09-29T02:55:09.804Z,75.15
2023-09-29T02:56:13.220Z,74.92
2023-09-29T02:57:15.579Z,74.83
2023-09-29T02:58:18.448Z,74.71
2023-09-29T02:59:21.883Z,74.50
2023-09-29T03:00:28.078Z,74.48
2023-09-29T03:01:30.049Z,74.55
2023-09-29T03:02:32.100Z,73.93
2023-09-29T03:03:34.401Z,73.83
2023-09-29T03:04:40.522Z,73.60
2023-09-29T03:05:44.423Z,73.87
2023-09-29T03:06:47.339Z,73.24
2023-09-29T03:07:50.091Z,73.35
2023-09-29T03:08:56.539Z,73.07
2023-09-29T03:09:58.710Z,73.65
2023-09-29T03:11:00.687Z,72.45
2023-09-29T03:12:02.916Z,72.53
2023-09-29T03:13:05.252Z,72.38
2023-09-29T03:14:07.916Z,72.11
2023-09-29T03:15:17.069Z,71.90
2023-09-29T03:16:19.755Z,71.73
2023-09-29T03:17:22.232Z,71.27
2023-09-29T03:18:24.399Z,71.24
2023-09-29T03:19:28.169Z,70.71
2023-09-29T03:20:30.445Z,70.56
2023-09-29T03:21:34.158Z,70.16
2023-09-29T03:22:39.015Z,69.50
2023-09-29T03:23:41.131Z,69.22
2023-09-29T03:24:44.254Z,69.18
2023-09-29T03:25:47.629Z,69.06
2023-09-29T03:26:50.606Z,68.47
2023-09-29T03:27:52.778Z,68.03
2023-09-29T03:28:57.783Z,68.24
2023-09-29T03:30:00.582Z,67.97
2023-09-29T03:31:11.481Z,68.51
2023-09-29T03:32:13.653Z,67.75
2023-09-29T03:33:15.629Z,67.48
2023-09-29T03:34:17.797Z,67.53
2023-09-29T03:35:19.866Z,67.24
2023-09-29T03:36:21.977Z,66.97
2023-09-29T03:37:24.621Z,67.14
2023-09-29T03:38:28.195Z,66.65
2023-09-29T03:39:30.166Z,66.72
2023-09-29T03:40:33.406Z,66.56
2023-09-29T03:41:35.906Z,66.46
2023-09-29T03:42:39.605Z,66.73
2023-09-29T03:43:42.644Z,66.60
2023-09-29T03:44:45.824Z,66.57
2023-09-29T03:45:48.116Z,65.91
2023-09-29T03:46:50.191Z,66.04
2023-09-29T03:47:52.768Z,66.12
2023-09-29T03:48:55.353Z,66.03
2023-09-29T03:49:57.620Z,65.49
2023-09-29T03:51:04.132Z,65.29
2023-09-29T03:52:10.206Z,64.94
2023-09-29T03:53:12.373Z,64.62
2023-09-29T03:54:14.418Z,64.75
2023-09-29T03:55:17.568Z,64.62
2023-09-29T03:56:24.473Z,64.45
2023-09-29T03:57:27.895Z,63.98
2023-09-29T03:58:30.015Z,63.48
2023-09-29T03:59:32.446Z,63.62
2023-09-29T04:00:34.702Z,63.29
2023-09-29T04:01:37.203Z,63.16
2023-09-29T04:02:41.597Z,63.01
2023-09-29T04:03:44.222Z,62.64
2023-09-29T04:04:46.317Z,62.58
2023-09-29T04:05:48.516Z,62.43
2023-09-29T04:06:51.016Z,62.20
2023-09-29T04:07:53.220Z,61.72
2023-09-29T04:08:56.139Z,61.45
2023-09-29T04:09:58.430Z,61.68
2023-09-29T04:11:00.616Z,61.73
2023-09-29T04:12:02.962Z,61.69
2023-09-29T04:13:05.339Z,61.63
2023-09-29T04:14:11.032Z,61.73
2023-09-29T04:15:20.304Z,61.42
2023-09-29T04:16:23.175Z,61.18
2023-09-29T04:17:25.403Z,61.42
2023-09-29T04:18:27.625Z,60.95
2023-09-29T04:19:29.864Z,60.77
2023-09-29T04:20:33.064Z,60.40
2023-09-29T04:21:34.990Z,58.81
2023-09-29T04:22:37.551Z,58.92
2023-09-29T04:23:39.707Z,59.00
2023-09-29T04:24:41.727Z,59.01
2023-09-29T04:25:45.068Z,59.17
2023-09-29T04:26:47.209Z,59.80
2023-09-29T04:27:49.304Z,60.04
2023-09-29T04:28:52.125Z,59.83
2023-09-29T04:29:54.265Z,59.34
2023-09-29T04:30:56.347Z,59.23
2023-09-29T04:31:58.481Z,59.02
2023-09-29T04:33:00.635Z,58.89
2023-09-29T04:34:02.754Z,59.29
2023-09-29T04:35:06.577Z,58.74
2023-09-29T04:36:08.712Z,60.06
2023-09-29T04:37:10.935Z,59.06
2023-09-29T04:38:13.012Z,58.99
2023-09-29T04:39:16.509Z,58.29
2023-09-29T04:40:18.630Z,58.31
2023-09-29T04:41:20.828Z,58.43
2023-09-29T04:42:23.093Z,58.86
2023-09-29T04:43:24.986Z,58.86
2023-09-29T04:44:27.179Z,59.07
2023-09-29T04:45:29.407Z,59.40
2023-09-29T04:46:31.561Z,59.51
2023-09-29T04:47:34.125Z,59.74
2023-09-29T04:48:36.606Z,60.08
2023-09-29T04:49:38.878Z,59.99
2023-09-29T04:50:41.370Z,59.96
2023-09-29T04:51:44.916Z,60.10
2023-09-29T04:52:46.926Z,60.13
2023-09-29T04:53:48.905Z,60.26
2023-09-29T04:54:51.023Z,59.91
2023-09-29T04:55:53.093Z,60.18
2023-09-29T04:56:55.248Z,60.36
2023-09-29T04:57:57.336Z,60.33
2023-09-29T04:58:59.298Z,60.43
2023-09-29T05:00:01.355Z,60.35
2023-09-29T05:01:04.320Z,60.39
2023-09-29T05:02:07.000Z,59.92
2023-09-29T05:03:09.321Z,60.12
2023-09-29T05:04:11.427Z,60.17
2023-09-29T05:05:13.967Z,60.24
2023-09-29T05:06:16.043Z,60.54
2023-09-29T05:07:18.177Z,60.79
2023-09-29T05:08:20.077Z,61.35
2023-09-29T05:09:22.454Z,61.93
2023-09-29T05:10:24.490Z,62.37
2023-09-29T05:11:30.197Z,62.96
2023-09-29T05:12:34.246Z,63.04
2023-09-29T05:13:36.358Z,63.70
2023-09-29T05:14:38.276Z,64.11
2023-09-29T05:15:40.426Z,64.23
2023-09-29T05:16:42.758Z,64.69
2023-09-29T05:17:50.704Z,64.58
2023-09-29T05:18:55.926Z,64.04
2023-09-29T05:19:58.373Z,64.14
2023-09-29T05:21:00.736Z,64.33
2023-09-29T05:22:02.804Z,64.81
2023-09-29T05:23:04.929Z,64.71
2023-09-29T05:24:07.614Z,65.16
2023-09-29T05:25:10.185Z,65.06
2023-09-29T05:26:12.550Z,65.09
2023-09-29T05:27:14.812Z,65.35
2023-09-29T05:28:16.887Z,65.44
2023-09-29T05:29:18.779Z,65.89
2023-09-29T05:30:21.036Z,65.21
2023-09-29T05:31:23.397Z,64.74
2023-09-29T05:32:25.913Z,64.72
2023-09-29T05:33:27.900Z,64.55
2023-09-29T05:34:30.298Z,64.63
2023-09-29T05:35:32.807Z,64.92
2023-09-29T05:36:35.001Z,65.46
2023-09-29T05:37:37.105Z,65.65
2023-09-29T05:38:39.272Z,65.74
2023-09-29T05:39:41.667Z,65.65
2023-09-29T05:40:43.870Z,65.96
2023-09-29T05:41:45.884Z,66.14
2023-09-29T05:42:53.127Z,66.37
2023-09-29T05:43:56.397Z,66.32
2023-09-29T05:44:58.628Z,66.82
2023-09-29T05:46:00.526Z,66.97
2023-09-29T05:47:02.634Z,67.40
2023-09-29T05:48:05.668Z,67.33
2023-09-29T05:49:07.863Z,67.26
2023-09-29T05:50:18.327Z,67.52
2023-09-29T05:51:21.547Z,66.98
2023-09-29T05:52:23.568Z,67.31
2023-09-29T05:53:25.618Z,66.97
2023-09-29T05:54:27.757Z,66.69
2023-09-29T05:55:29.829Z,66.75
2023-09-29T05:56:34.534Z,66.58
2023-09-29T05:57:37.768Z,65.99
2023-09-29T05:58:40.305Z,66.31
2023-09-29T05:59:42.779Z,66.75
2023-09-29T06:00:44.694Z,67.11
2023-09-29T06:01:47.425Z,67.37
2023-09-29T06:02:50.165Z,67.79
2023-09-29T06:03:55.952Z,67.28
2023-09-29T06:04:57.975Z,67.27
2023-09-29T06:06:00.359Z,67.51
2023-09-29T06:07:02.437Z,67.22
2023-09-29T06:08:04.710Z,67.34
2023-09-29T06:09:07.918Z,67.61
2023-09-29T06:10:11.214Z,67.06
2023-09-29T06:11:13.874Z,67.37
2023-09-29T06:12:15.871Z,67.25
2023-09-29T06:13:17.742Z,67.18
2023-09-29T06:14:19.678Z,67.44
2023-09-29T06:15:21.720Z,67.52
2023-09-29T06:16:24.045Z,67.77
2023-09-29T06:17:26.235Z,67.73
2023-09-29T06:18:28.678Z,67.50
2023-09-29T06:19:30.770Z,67.69
2023-09-29T06:20:33.115Z,67.87
2023-09-29T06:21:35.031Z,67.98
2023-09-29T06:22:37.202Z,67.95
2023-09-29T06:23:39.098Z,67.79
2023-09-29T06:24:41.535Z,67.69
2023-09-29T06:25:43.467Z,67.72
2023-09-29T06:26:45.528Z,67.74
2023-09-29T06:27:47.852Z,68.05
2023-09-29T06:28:49.912Z,68.00
2023-09-29T06:29:52.050Z,68.07
2023-09-29T06:30:57.197Z,68.44
2023-09-29T06:31:59.363Z,68.52
2023-09-29T06:33:01.462Z,68.61
2023-09-29T06:34:03.879Z,68.91
2023-09-29T06:35:06.497Z,68.64
2023-09-29T06:36:08.508Z,68.87
2023-09-29T06:37:10.569Z,68.78
2023-09-29T06:38:12.570Z,68.51
2023-09-29T06:39:15.489Z,68.69
2023-09-29T06:40:17.585Z,68.41
2023-09-29T06:41:19.586Z,68.55
2023-09-29T06:42:21.667Z,68.34
2023-09-29T06:43:24.008Z,68.33
2023-09-29T06:44:26.114Z,67.72
2023-09-29T06:45:45.843Z,67.98
2023-09-29T06:46:53.258Z,68.09
2023-09-29T06:47:55.604Z,68.34
2023-09-29T06:48:57.672Z,67.72
2023-09-29T06:49:59.753Z,67.23
2023-09-29T06:51:02.329Z,66.95
2023-09-29T06:52:05.300Z,67.25
2023-09-29T06:53:07.353Z,67.28
2023-09-29T06:54:09.605Z,67.35
2023-09-29T06:55:11.849Z,67.58
2023-09-29T06:56:13.916Z,67.47
2023-09-29T06:57:15.924Z,67.11
2023-09-29T06:58:18.142Z,66.53
2023-09-29T06:59:20.119Z,66.64
2023-09-29T07:00:22.078Z,66.52
2023-09-29T07:01:23.953Z,66.57
2023-09-29T07:02:25.953Z,66.55
2023-09-29T07:03:31.407Z,66.14
2023-09-29T07:04:34.360Z,66.66
2023-09-29T07:05:36.317Z,66.21
2023-09-29T07:06:38.529Z,65.08
2023-09-29T07:07:41.091Z,65.23
2023-09-29T07:08:43.132Z,65.02
2023-09-29T07:09:45.261Z,65.46
2023-09-29T07:10:47.397Z,65.19
2023-09-29T07:11:49.360Z,65.33
2023-09-29T07:12:51.469Z,65.35
2023-09-29T07:13:53.697Z,64.76
2023-09-29T07:14:56.051Z,64.31
2023-09-29T07:15:58.096Z,64.25
2023-09-29T07:17:00.372Z,64.45
2023-09-29T07:18:02.633Z,64.32
2023-09-29T07:19:05.046Z,63.81
2023-09-29T07:20:07.888Z,63.59
2023-09-29T07:21:10.400Z,63.46
2023-09-29T07:22:12.525Z,63.89
2023-09-29T07:23:14.622Z,64.39
2023-09-29T07:24:18.069Z,64.38
2023-09-29T07:25:20.311Z,64.19
2023-09-29T07:26:22.857Z,64.40
2023-09-29T07:27:26.006Z,64.12
2023-09-29T07:28:27.953Z,63.75
2023-09-29T07:29:30.052Z,63.91
2023-09-29T07:30:32.147Z,63.83
2023-09-29T07:31:38.414Z,63.39
2023-09-29T07:32:42.937Z,62.94
2023-09-29T07:33:45.508Z,63.08
2023-09-29T07:34:47.563Z,62.65
2023-09-29T07:35:49.589Z,62.61
2023-09-29T07:36:51.596Z,62.90
2023-09-29T07:37:53.788Z,62.58
2023-09-29T07:38:55.899Z,61.80
2023-09-29T07:39:59.479Z,61.76
2023-09-29T07:41:06.021Z,61.42
2023-09-29T07:42:08.096Z,60.63
2023-09-29T07:43:10.324Z,60.97
2023-09-29T07:44:12.458Z,60.96
2023-09-29T07:45:14.611Z,61.23
2023-09-29T07:46:16.889Z,61.60
2023-09-29T07:47:19.286Z,61.42
2023-09-29T07:48:22.957Z,61.72
2023-09-29T07:49:26.187Z,62.32
2023-09-29T07:50:28.243Z,61.95
2023-09-29T07:51:31.240Z,62.15
2023-09-29T07:52:33.291Z,62.27
2023-09-29T07:53:35.275Z,62.50
2023-09-29T07:54:37.359Z,62.23
2023-09-29T07:55:39.596Z,61.44
2023-09-29T07:56:41.789Z,61.04
2023-09-29T07:57:43.873Z,60.91
2023-09-29T07:58:46.037Z,60.46
2023-09-29T07:59:48.061Z,60.63
2023-09-29T08:00:50.006Z,60.66
2023-09-29T08:01:52.856Z,60.67
2023-09-29T08:02:55.109Z,60.23
2023-09-29T08:03:58.715Z,59.14
2023-09-29T08:05:01.035Z,59.75
2023-09-29T08:06:03.391Z,58.93
2023-09-29T08:07:06.226Z,59.70
2023-09-29T08:08:08.293Z,58.62
2023-09-29T08:09:10.861Z,58.87
2023-09-29T08:10:13.040Z,57.94
2023-09-29T08:11:15.590Z,58.01
2023-09-29T08:12:18.532Z,57.80
2023-09-29T08:13:20.538Z,57.63
2023-09-29T08:14:22.479Z,57.88
2023-09-29T08:15:26.028Z,58.17
2023-09-29T08:16:28.319Z,58.46
2023-09-29T08:17:30.764Z,58.65
2023-09-29T08:18:32.850Z,58.59
2023-09-29T08:19:35.526Z,58.90
2023-09-29T08:20:37.638Z,58.71
2023-09-29T08:21:40.345Z,59.20
2023-09-29T08:22:43.080Z,59.55
2023-09-29T08:23:45.446Z,59.40
2023-09-29T08:24:47.541Z,59.80
2023-09-29T08:25:49.602Z,59.77
2023-09-29T08:26:51.737Z,59.35
2023-09-29T08:27:53.804Z,59.19
2023-09-29T08:28:58.605Z,59.83
2023-09-29T08:30:00.858Z,59.92
2023-09-29T08:31:03.837Z,60.03
2023-09-29T08:32:06.378Z,60.27
2023-09-29T08:33:17.701Z,60.31
2023-09-29T08:34:25.756Z,60.20
2023-09-29T08:35:29.340Z,60.19
2023-09-29T08:36:31.481Z,60.07
2023-09-29T08:37:33.692Z,59.69
2023-09-29T08:38:35.810Z,59.56
2023-09-29T08:39:38.811Z,59.08
2023-09-29T08:40:41.966Z,58.79
2023-09-29T08:41:49.726Z,57.75
2023-09-29T08:42:52.124Z,57.72
2023-09-29T08:44:06.123Z,57.60
2023-09-29T08:45:13.347Z,57.35
2023-09-29T08:46:17.183Z,56.80
2023-09-29T08:47:27.087Z,56.21
2023-09-29T08:48:30.822Z,55.20
2023-09-29T08:50:42.615Z,55.68
2023-09-29T08:51:48.116Z,55.33
2023-09-29T08:52:52.332Z,55.68
2023-09-29T08:53:57.834Z,55.46
2023-09-29T08:55:01.019Z,55.84
2023-09-29T08:56:12.764Z,56.11
2023-09-29T08:57:17.161Z,56.84
2023-09-29T08:58:20.079Z,57.36
2023-09-29T08:59:23.444Z,56.57
2023-09-29T09:00:28.128Z,57.06
2023-09-29T09:01:31.546Z,56.79
2023-09-29T09:02:33.824Z,57.21
2023-09-29T09:03:36.902Z,57.06
2023-09-29T09:04:39.229Z,56.77
2023-09-29T09:05:41.954Z,56.75
2023-09-29T09:06:44.039Z,57.10
2023-09-29T09:07:46.096Z,56.96
2023-09-29T09:08:49.789Z,57.02
2023-09-29T09:09:55.346Z,56.81
2023-09-29T09:11:02.205Z,56.46
2023-09-29T09:12:04.408Z,56.70
2023-09-29T09:13:07.036Z,56.03
2023-09-29T09:14:11.399Z,55.46
2023-09-29T09:15:13.426Z,55.32
2023-09-29T09:16:15.353Z,54.81
2023-09-29T09:17:18.213Z,54.35
2023-09-29T09:18:20.469Z,54.35
2023-09-29T09:19:22.765Z,54.37
2023-09-29T09:20:25.228Z,53.58
2023-09-29T09:21:34.324Z,53.31
2023-09-29T09:22:46.389Z,53.78
2023-09-29T09:23:49.440Z,54.04
2023-09-29T09:24:52.739Z,53.96
2023-09-29T09:25:55.672Z,53.74
2023-09-29T09:27:02.760Z,54.04
2023-09-29T09:28:06.811Z,54.40
2023-09-29T09:29:10.029Z,54.94
2023-09-29T09:30:23.288Z,55.02
2023-09-29T09:31:25.414Z,54.82
2023-09-29T09:32:28.763Z,55.20
2023-09-29T09:33:32.680Z,55.13
2023-09-29T09:34:35.357Z,54.95
2023-09-29T09:35:39.423Z,55.39
2023-09-29T09:36:53.760Z,55.58
2023-09-29T09:37:56.795Z,55.38
2023-09-29T09:39:04.807Z,55.59
2023-09-29T09:40:13.643Z,55.87
2023-09-29T09:41:18.158Z,55.98
2023-09-29T09:42:21.581Z,56.02
2023-09-29T09:43:26.503Z,55.81
2023-09-29T09:44:28.840Z,55.78
2023-09-29T09:45:39.130Z,55.31
2023-09-29T09:46:42.152Z,55.56
2023-09-29T09:47:47.973Z,55.67
2023-09-29T09:49:09.019Z,55.65
2023-09-29T09:50:13.102Z,55.88
2023-09-29T09:51:35.846Z,55.50
2023-09-29T09:52:39.089Z,55.46
2023-09-29T09:53:41.382Z,55.54
2023-09-29T09:54:49.596Z,55.72
2023-09-29T09:56:05.355Z,55.48
2023-09-29T09:57:12.671Z,55.40
2023-09-29T09:58:18.171Z,55.46
2023-09-29T09:59:20.706Z,55.58
2023-09-29T10:00:25.877Z,55.41
2023-09-29T10:01:29.341Z,55.59
2023-09-29T10:02:34.615Z,55.57
2023-09-29T10:03:39.295Z,55.27
2023-09-29T10:04:44.754Z,55.00
2023-09-29T10:05:53.691Z,54.89
2023-09-29T10:06:58.540Z,54.95
2023-09-29T10:08:04.437Z,54.53
2023-09-29T10:09:11.515Z,54.26
2023-09-29T10:10:33.443Z,53.24
2023-09-29T10:11:35.779Z,53.24
2023-09-29T10:12:37.886Z,53.36
2023-09-29T10:13:46.208Z,52.88
2023-09-29T10:14:49.270Z,52.92
2023-09-29T10:16:03.493Z,53.22
2023-09-29T10:17:07.473Z,53.17
2023-09-29T10:18:19.398Z,53.29
2023-09-29T10:19:21.583Z,53.09
2023-09-29T10:20:25.995Z,52.74
2023-09-29T10:21:35.219Z,53.04
2023-09-29T10:22:37.889Z,53.66
2023-09-29T10:23:47.317Z,54.13
2023-09-29T10:24:49.501Z,54.18
2023-09-29T10:26:05.769Z,53.97
2023-09-29T10:27:13.347Z,53.05
2023-09-29T10:28:18.860Z,53.16
2023-09-29T10:29:27.916Z,52.16
2023-09-29T10:30:30.505Z,51.95
2023-09-29T10:31:32.493Z,51.83
2023-09-29T10:32:36.600Z,51.42
2023-09-29T10:33:55.466Z,51.03
2023-09-29T10:35:06.518Z,50.89
2023-09-29T10:36:10.891Z,51.03
2023-09-29T10:37:13.026Z,50.50
2023-09-29T10:38:29.392Z,50.15
2023-09-29T10:39:32.148Z,49.90
2023-09-29T10:40:34.725Z,50.13
2023-09-29T10:41:38.806Z,50.41
2023-09-29T10:42:43.584Z,50.44
2023-09-29T10:43:50.458Z,50.52
2023-09-29T10:44:54.765Z,51.04
2023-09-29T10:45:57.532Z,51.19
2023-09-29T10:47:02.509Z,51.32
2023-09-29T10:48:08.942Z,51.32
2023-09-29T10:49:11.675Z,51.59
2023-09-29T10:50:13.999Z,51.52
2023-09-29T10:51:31.867Z,51.82
2023-09-29T10:52:37.354Z,51.51
2023-09-29T10:53:40.229Z,51.93
2023-09-29T10:54:45.178Z,52.00
2023-09-29T10:55:49.408Z,52.21
2023-09-29T10:56:51.598Z,52.54
2023-09-29T10:57:53.974Z,52.11
2023-09-29T10:58:56.903Z,52.27
2023-09-29T11:00:01.512Z,52.14
2023-09-29T11:01:05.626Z,52.11
2023-09-29T11:02:09.448Z,52.03
2023-09-29T11:03:14.931Z,51.83
2023-09-29T11:04:17.504Z,51.75
2023-09-29T11:05:22.200Z,51.41
2023-09-29T11:06:25.371Z,51.31
2023-09-29T11:07:30.918Z,51.35
2023-09-29T11:08:40.204Z,51.78
2023-09-29T11:09:42.149Z,51.77
2023-09-29T11:10:54.799Z,51.45
2023-09-29T11:11:57.022Z,51.66
2023-09-29T11:12:59.191Z,51.65
2023-09-29T11:14:01.891Z,51.84
2023-09-29T11:15:09.725Z,51.83
2023-09-29T11:16:18.469Z,51.40
2023-09-29T11:17:20.676Z,51.52
2023-09-29T11:18:31.523Z,51.50
2023-09-29T11:19:33.880Z,51.50
2023-09-29T11:20:35.851Z,51.40
2023-09-29T11:21:38.794Z,51.46
2023-09-29T11:22:40.968Z,51.43
2023-09-29T11:23:48.863Z,51.36
2023-09-29T11:24:52.412Z,51.29
2023-09-29T11:25:59.338Z,50.96
2023-09-29T11:27:02.305Z,50.85
2023-09-29T11:28:04.653Z,50.58
2023-09-29T11:29:07.071Z,49.75
2023-09-29T11:30:10.866Z,49.98
2023-09-29T11:31:14.005Z,50.05
2023-09-29T11:32:19.619Z,50.05
2023-09-29T11:33:22.100Z,50.19
2023-09-29T11:34:24.449Z,50.53
2023-09-29T11:35:29.998Z,50.64
2023-09-29T11:36:31.985Z,50.66
2023-09-29T11:37:34.209Z,50.48
2023-09-29T11:38:36.313Z,50.74
2023-09-29T11:39:38.345Z,50.86
2023-09-29T11:40:40.314Z,50.42
2023-09-29T11:41:42.390Z,50.21
2023-09-29T11:42:46.738Z,50.32
2023-09-29T11:43:49.478Z,50.66
2023-09-29T11:44:51.486Z,50.56
2023-09-29T11:45:54.281Z,50.45
2023-09-29T11:46:56.327Z,50.21
2023-09-29T11:47:58.431Z,50.24
2023-09-29T11:49:00.568Z,50.11
2023-09-29T11:50:03.672Z,49.83
2023-09-29T11:51:09.726Z,49.48
2023-09-29T11:52:11.739Z,49.61
2023-09-29T11:53:14.668Z,49.42
2023-09-29T11:54:16.622Z,49.45
2023-09-29T11:55:18.905Z,48.92
2023-09-29T11:56:21.851Z,49.34
2023-09-29T11:57:24.007Z,49.24
2023-09-29T11:58:25.983Z,49.32
2023-09-29T11:59:27.993Z,49.20
2023-09-29T12:00:30.838Z,49.41
2023-09-29T12:01:33.009Z,49.39
2023-09-29T12:02:35.794Z,49.40
2023-09-29T12:03:39.227Z,49.35
2023-09-29T12:04:41.266Z,49.27
2023-09-29T12:05:45.533Z,50.00
2023-09-29T12:06:47.557Z,50.21
2023-09-29T12:07:49.642Z,50.36
2023-09-29T12:08:51.734Z,50.11
2023-09-29T12:09:53.714Z,50.27
2023-09-29T12:10:55.781Z,50.30
2023-09-29T12:12:02.699Z,50.48
2023-09-29T12:13:05.828Z,50.60
2023-09-29T12:14:10.074Z,50.95
2023-09-29T12:15:14.487Z,50.95
2023-09-29T12:16:16.673Z,50.94
2023-09-29T12:17:19.239Z,50.82
2023-09-29T12:18:21.386Z,51.12
2023-09-29T12:19:23.439Z,50.98
2023-09-29T12:20:25.857Z,50.90
2023-09-29T12:21:28.344Z,50.88
2023-09-29T12:22:32.468Z,50.84
2023-09-29T12:23:34.503Z,51.42
2023-09-29T12:24:36.736Z,50.79
2023-09-29T12:25:39.610Z,51.23
2023-09-29T12:26:47.843Z,51.07
2023-09-29T12:27:50.239Z,51.05
2023-09-29T12:28:52.375Z,50.93
2023-09-29T12:29:54.387Z,50.81
2023-09-29T12:30:56.354Z,50.76
2023-09-29T12:32:00.751Z,50.86
2023-09-29T12:33:03.162Z,51.11
2023-09-29T12:34:05.603Z,50.96
2023-09-29T12:35:09.405Z,50.83
2023-09-29T12:36:11.453Z,50.97
2023-09-29T12:37:13.470Z,51.01
2023-09-29T12:38:15.401Z,51.12
2023-09-29T12:39:17.298Z,51.35
2023-09-29T12:40:19.470Z,51.58
2023-09-29T12:41:21.394Z,51.50
2023-09-29T12:42:23.794Z,52.22
2023-09-29T12:43:25.743Z,51.87
2023-09-29T12:44:27.749Z,51.97
2023-09-29T12:45:29.817Z,52.29
2023-09-29T12:46:33.183Z,52.18
2023-09-29T12:47:35.524Z,52.31
2023-09-29T12:48:38.159Z,52.88
2023-09-29T12:49:40.159Z,52.65
2023-09-29T12:50:42.678Z,53.19
2023-09-29T12:51:59.320Z,52.91
2023-09-29T12:53:04.601Z,52.77
2023-09-29T12:54:07.401Z,52.98
2023-09-29T12:55:11.079Z,53.02
2023-09-29T12:56:19.525Z,52.83
2023-09-29T12:57:21.595Z,52.83
2023-09-29T12:58:23.849Z,52.72
2023-09-29T12:59:27.519Z,53.13
2023-09-29T13:00:30.463Z,53.06
2023-09-29T13:01:34.391Z,53.06
2023-09-29T13:02:36.440Z,53.09
2023-09-29T13:03:39.238Z,53.34
2023-09-29T13:04:43.146Z,53.60
2023-09-29T13:05:47.397Z,53.17
2023-09-29T13:06:49.521Z,53.39
2023-09-29T13:07:53.349Z,53.50
2023-09-29T13:08:55.747Z,53.45
2023-09-29T13:09:57.833Z,53.58
2023-09-29T13:11:00.096Z,53.26
2023-09-29T13:12:04.737Z,53.61
2023-09-29T13:13:08.304Z,53.34
2023-09-29T13:14:10.414Z,53.51
2023-09-29T13:15:12.384Z,53.50
2023-09-29T13:16:15.317Z,54.24
2023-09-29T13:17:17.295Z,53.53
2023-09-29T13:18:20.683Z,53.53
2023-09-29T13:19:23.732Z,53.66
2023-09-29T13:20:26.343Z,53.74
2023-09-29T13:21:32.526Z,53.99
2023-09-29T13:22:34.544Z,53.89
2023-09-29T13:23:36.651Z,54.13
2023-09-29T13:24:38.688Z,54.56
2023-09-29T13:25:40.710Z,54.27
2023-09-29T13:26:42.835Z,54.18
2023-09-29T13:27:44.966Z,53.91
2023-09-29T13:28:47.218Z,54.06
2023-09-29T13:29:51.998Z,54.55
2023-09-29T13:30:55.609Z,54.31
2023-09-29T13:31:57.794Z,54.48
2023-09-29T13:33:00.020Z,54.30
2023-09-29T13:34:02.304Z,54.94
2023-09-29T13:35:04.696Z,54.53
2023-09-29T13:36:07.522Z,54.91
2023-09-29T13:37:09.609Z,54.82
2023-09-29T13:38:14.172Z,54.68
2023-09-29T13:39:16.339Z,54.80
2023-09-29T13:40:18.387Z,54.68